Paoli, IN (47454)

8:29 AM EDT on March 29, 2017 (GMT -0400)
Orleans | | Change Station

Elev 690 ft 38.66 °N, 86.40 °W | Updated 0 second ago

Partly Cloudy
Partly Cloudy
51.4 °F
Feels Like 51.4 °F
N
0.0
Wind Variable Wind from South
Gusts 0.0 mph

Today
High -- | Low -- °F
--% Chance of Precip.
Yesterday
High -- | Low -- °F
Precip. -- in
Pressure 30.09 in
Visibility 8.0 miles
Clouds Clear
Dew Point 48 °F
Humidity 88%
Rainfall 0.00 in
Snow Depth Not available.
7:34 AM 8:06 PM
Waxing Crescent, 3% visible
METAR KHNB 291156Z AUTO 08010KT 8SM CLR 10/08 A3009 RMK AO2 SLP189 T01000083 10111 20083 58001
Pressure 30.09 in
Visibility 8.0 miles
Clouds Clear
Dew Point 48 °F
Humidity 88%
Rainfall 0.00 in
Snow Depth Not available.
7:34 AM 8:06 PM
Waxing Crescent, 3% visible
METAR KHNB 291156Z AUTO 08010KT 8SM CLR 10/08 A3009 RMK AO2 SLP189 T01000083 10111 20083 58001

Get Severe Weather Alerts

Thanks for signing up!

Be on the lookout for a verification email in your inbox.

You'll start receiving the daily forecast at 8 AM.

×

10-Day Weather Forecast

Almanac

Astronomy

Mar. 29, 2017 Rise Set
Actual Time
Civil Twilight
Nautical Twilight
Astronomical Twilight
Moon
Length of Visible Light
Length of Day
Tomorrow will be .
, % of the Moon is Illuminated

Today's Extremes

State Highs State Lows

Community

WunderPhotos

Upload Photos

1,962,540 photos uploaded!

WunderBlog® & News

Nearby

Air Quality

  Air Quality AQ Index Pollutant
Not available.

Snow Depth

Station Depth Elevation

Earthquake Activity

City Distance Mag. Time & Date
Minimum magnitude displayed is 2.5.

Earthquake Activity

City Distance Mag. Time & Date
Minimum magnitude displayed is 2.5.

Coastal Water Temperatures

Place Temperature

Stations

Nearby Weather Stations

Station Location Temp. Windchill Dew Point Humidity Wind Precip. Elev Updated Type
                   

Watches & Warnings

There are currently no watches in effect.